Chicago O'Hare International Airport
KORD : now visible

Airfield :











YOU CAN JOIN US ON...

 
LOGIN :

Register | Disclaimer

   EN    FR    IT 

 









Legend :    VFR   Marginal VFR   IFR   Intensive IFR   Very Intensive IFR
Visi :
Ceiling :
>= 8 km
>= 3000ft
5 to 8 km
1000 to 3000 ft
1500m to 5 km
500 to 1000 ft
800 to 1500m
200 to 500 ft
< 800m
< 200 ft
Symbols :   Thunderstorms  Fog  Heavy snow  Heavy precipitations  Wind > 20 kt






- Airport Elevation : 672 ft
- IATA code : ORD


KORD - Chicago O'Hare International

CURRENT METAR :
  • 182051Z 14015KT 10SM -RA FEW038 BKN095 OVC250 23/14 A3016 RMK AO2 RAB36 SLP210 P0000 60000 T02330144 58010 $

EXPIRED METARs :
  • 181951Z 16014G23KT 10SM SCT042 BKN080 OVC250 24/14 A3017 RMK AO2 RAE03 SLP215 P0000 T02390139 $
  • 181851Z 15014G21KT 10SM -RA FEW045 OVC080 23/13 A3018 RMK AO2 PK WND 15026/1833 RAB42 SLP218 P0000 T02330128 $

TAF KORD
Valid from the 18 at 21:00 until the 20 at 00:00 UTC


182058Z 1821/1924 15012G21KT P6SM -SHRA SCT020 SCT035 OVC070
FM190600 16011G18KT P6SM VCSH BKN025 OVC050
TEMPO 1912/1916 5SM -SHRA
FM191600 18013G21KT P6SM BKN050
KZAU FIR / North America



MET'MAP, your aeronautical weather chart ! - Copyright ORBIFLY December 2007 - Disclaimer

ORBIFLY MET'MAP TEAM :

Programming & Development : Alexandra Zaïnal
Concept & original design : Baudouin d'Aumeries
Assistance for programming : Marc-Olivier Méhu
Technical & hardware support : Manuel Goepfert

Contact : metmap@orbifly.com




SOURCES & CREDITS :

   NOAA       Earth
Advisory